sensor_id;sensor_type;location;lat;lon;timestamp;temperature;humidity
11597;DHT22;5854;48.072;16.286;2024-01-16T00:01:00;1.40;62.50
11597;DHT22;5854;48.072;16.286;2024-01-16T00:03:27;1.40;64.40
11597;DHT22;5854;48.072;16.286;2024-01-16T00:05:56;1.50;67.60
11597;DHT22;5854;48.072;16.286;2024-01-16T00:08:23;1.50;66.70
11597;DHT22;5854;48.072;16.286;2024-01-16T00:10:50;1.50;65.90
11597;DHT22;5854;48.072;16.286;2024-01-16T00:13:17;1.40;64.00
11597;DHT22;5854;48.072;16.286;2024-01-16T00:15:45;1.50;64.50
11597;DHT22;5854;48.072;16.286;2024-01-16T00:18:12;1.40;59.10
11597;DHT22;5854;48.072;16.286;2024-01-16T00:20:39;1.40;66.10
11597;DHT22;5854;48.072;16.286;2024-01-16T00:23:08;1.40;62.30
11597;DHT22;5854;48.072;16.286;2024-01-16T00:25:35;1.40;60.70
11597;DHT22;5854;48.072;16.286;2024-01-16T00:28:02;1.30;58.20
11597;DHT22;5854;48.072;16.286;2024-01-16T00:30:30;1.40;63.60
11597;DHT22;5854;48.072;16.286;2024-01-16T00:32:57;1.40;60.40
11597;DHT22;5854;48.072;16.286;2024-01-16T00:35:24;1.40;64.30
11597;DHT22;5854;48.072;16.286;2024-01-16T00:37:52;1.40;66.60
11597;DHT22;5854;48.072;16.286;2024-01-16T00:40:20;1.40;60.90
11597;DHT22;5854;48.072;16.286;2024-01-16T00:42:47;1.40;64.40
11597;DHT22;5854;48.072;16.286;2024-01-16T00:45:14;1.30;57.60
11597;DHT22;5854;48.072;16.286;2024-01-16T00:47:43;1.40;64.50
11597;DHT22;5854;48.072;16.286;2024-01-16T00:50:10;1.40;64.10
11597;DHT22;5854;48.072;16.286;2024-01-16T00:52:38;1.40;63.80
11597;DHT22;5854;48.072;16.286;2024-01-16T00:55:05;1.40;61.80
11597;DHT22;5854;48.072;16.286;2024-01-16T00:57:34;1.30;62.60
11597;DHT22;5854;48.072;16.286;2024-01-16T01:00:01;1.30;64.30
11597;DHT22;5854;48.072;16.286;2024-01-16T01:02:30;1.40;63.80
11597;DHT22;5854;48.072;16.286;2024-01-16T01:04:57;1.40;59.40
11597;DHT22;5854;48.072;16.286;2024-01-16T01:07:24;1.40;64.00
11597;DHT22;5854;48.072;16.286;2024-01-16T01:09:52;1.40;62.10
11597;DHT22;5854;48.072;16.286;2024-01-16T01:12:19;1.40;61.20
11597;DHT22;5854;48.072;16.286;2024-01-16T01:14:50;1.30;58.80
11597;DHT22;5854;48.072;16.286;2024-01-16T01:17:17;1.30;60.60
11597;DHT22;5854;48.072;16.286;2024-01-16T01:19:44;1.30;64.20
11597;DHT22;5854;48.072;16.286;2024-01-16T01:22:11;1.30;61.90
11597;DHT22;5854;48.072;16.286;2024-01-16T01:24:39;1.30;64.20
11597;DHT22;5854;48.072;16.286;2024-01-16T01:27:06;1.20;60.10
11597;DHT22;5854;48.072;16.286;2024-01-16T01:29:33;1.20;57.10
11597;DHT22;5854;48.072;16.286;2024-01-16T01:32:02;1.30;60.90
11597;DHT22;5854;48.072;16.286;2024-01-16T01:34:30;1.20;56.40
11597;DHT22;5854;48.072;16.286;2024-01-16T01:36:57;1.20;57.10
11597;DHT22;5854;48.072;16.286;2024-01-16T01:39:24;1.30;63.60
11597;DHT22;5854;48.072;16.286;2024-01-16T01:41:52;1.20;58.30
11597;DHT22;5854;48.072;16.286;2024-01-16T01:44:19;1.20;60.80
11597;DHT22;5854;48.072;16.286;2024-01-16T01:46:46;1.20;57.50
11597;DHT22;5854;48.072;16.286;2024-01-16T01:49:15;1.20;53.60
11597;DHT22;5854;48.072;16.286;2024-01-16T01:51:43;1.10;56.00
11597;DHT22;5854;48.072;16.286;2024-01-16T01:54:12;1.20;60.50
11597;DHT22;5854;48.072;16.286;2024-01-16T01:56:42;1.20;61.90
11597;DHT22;5854;48.072;16.286;2024-01-16T01:59:11;1.20;57.80
11597;DHT22;5854;48.072;16.286;2024-01-16T02:01:40;1.20;59.50
11597;DHT22;5854;48.072;16.286;2024-01-16T02:04:08;1.20;59.30
11597;DHT22;5854;48.072;16.286;2024-01-16T02:06:38;1.20;59.50
11597;DHT22;5854;48.072;16.286;2024-01-16T02:09:05;1.10;64.10
11597;DHT22;5854;48.072;16.286;2024-01-16T02:11:33;1.10;63.00
11597;DHT22;5854;48.072;16.286;2024-01-16T02:14:01;1.20;63.70
11597;DHT22;5854;48.072;16.286;2024-01-16T02:16:35;1.10;53.90
11597;DHT22;5854;48.072;16.286;2024-01-16T02:19:04;1.10;62.00
11597;DHT22;5854;48.072;16.286;2024-01-16T02:21:35;1.10;63.50
11597;DHT22;5854;48.072;16.286;2024-01-16T02:24:08;1.20;63.50
11597;DHT22;5854;48.072;16.286;2024-01-16T02:26:37;1.00;56.10
11597;DHT22;5854;48.072;16.286;2024-01-16T02:29:05;1.10;62.10
11597;DHT22;5854;48.072;16.286;2024-01-16T02:31:32;1.10;57.10
11597;DHT22;5854;48.072;16.286;2024-01-16T02:33:59;1.00;58.40
11597;DHT22;5854;48.072;16.286;2024-01-16T02:36:27;1.00;58.50
11597;DHT22;5854;48.072;16.286;2024-01-16T02:38:55;1.10;58.00
11597;DHT22;5854;48.072;16.286;2024-01-16T02:41:24;1.10;59.90
11597;DHT22;5854;48.072;16.286;2024-01-16T02:43:51;1.00;57.80
11597;DHT22;5854;48.072;16.286;2024-01-16T02:46:19;1.00;61.10
11597;DHT22;5854;48.072;16.286;2024-01-16T02:48:46;1.00;59.80
11597;DHT22;5854;48.072;16.286;2024-01-16T02:51:14;1.00;58.80
11597;DHT22;5854;48.072;16.286;2024-01-16T02:53:41;1.00;62.30
11597;DHT22;5854;48.072;16.286;2024-01-16T02:56:08;1.10;61.60
11597;DHT22;5854;48.072;16.286;2024-01-16T02:58:38;1.00;60.20
11597;DHT22;5854;48.072;16.286;2024-01-16T03:01:05;0.90;59.40
11597;DHT22;5854;48.072;16.286;2024-01-16T03:03:32;0.90;61.10
11597;DHT22;5854;48.072;16.286;2024-01-16T03:06:00;0.90;59.80
11597;DHT22;5854;48.072;16.286;2024-01-16T03:08:27;1.00;63.20
11597;DHT22;5854;48.072;16.286;2024-01-16T03:10:54;0.90;63.10
11597;DHT22;5854;48.072;16.286;2024-01-16T03:13:22;0.90;61.70
11597;DHT22;5854;48.072;16.286;2024-01-16T03:15:51;1.00;65.30
11597;DHT22;5854;48.072;16.286;2024-01-16T03:18:18;0.90;63.90
11597;DHT22;5854;48.072;16.286;2024-01-16T03:20:45;0.90;61.90
11597;DHT22;5854;48.072;16.286;2024-01-16T03:23:12;0.90;58.40
11597;DHT22;5854;48.072;16.286;2024-01-16T03:25:39;0.80;55.90
11597;DHT22;5854;48.072;16.286;2024-01-16T03:28:06;0.80;58.50
11597;DHT22;5854;48.072;16.286;2024-01-16T03:30:36;0.80;58.60
11597;DHT22;5854;48.072;16.286;2024-01-16T03:33:05;0.80;57.20
11597;DHT22;5854;48.072;16.286;2024-01-16T03:35:32;0.80;56.00
11597;DHT22;5854;48.072;16.286;2024-01-16T03:37:59;0.90;62.50
11597;DHT22;5854;48.072;16.286;2024-01-16T03:40:26;0.90;61.40
11597;DHT22;5854;48.072;16.286;2024-01-16T03:42:54;0.90;60.00
11597;DHT22;5854;48.072;16.286;2024-01-16T03:45:21;1.00;65.50
11597;DHT22;5854;48.072;16.286;2024-01-16T03:47:48;0.90;60.40
11597;DHT22;5854;48.072;16.286;2024-01-16T03:50:17;0.90;63.40
11597;DHT22;5854;48.072;16.286;2024-01-16T03:52:44;0.90;61.90
11597;DHT22;5854;48.072;16.286;2024-01-16T03:55:12;0.90;63.40
11597;DHT22;5854;48.072;16.286;2024-01-16T03:57:39;0.90;62.80
11597;DHT22;5854;48.072;16.286;2024-01-16T04:00:08;0.90;59.50
11597;DHT22;5854;48.072;16.286;2024-01-16T04:02:39;0.80;58.60
11597;DHT22;5854;48.072;16.286;2024-01-16T04:05:07;0.80;58.30
11597;DHT22;5854;48.072;16.286;2024-01-16T04:07:36;0.80;56.40
11597;DHT22;5854;48.072;16.286;2024-01-16T04:10:04;0.80;63.50
11597;DHT22;5854;48.072;16.286;2024-01-16T04:12:33;0.80;61.70
11597;DHT22;5854;48.072;16.286;2024-01-16T04:15:00;0.80;64.00
11597;DHT22;5854;48.072;16.286;2024-01-16T04:17:27;0.90;63.40
11597;DHT22;5854;48.072;16.286;2024-01-16T04:19:54;0.80;60.80
11597;DHT22;5854;48.072;16.286;2024-01-16T04:22:21;0.90;61.50
11597;DHT22;5854;48.072;16.286;2024-01-16T04:24:50;0.90;64.20
11597;DHT22;5854;48.072;16.286;2024-01-16T04:27:17;0.90;63.80
11597;DHT22;5854;48.072;16.286;2024-01-16T04:29:44;0.90;62.20
11597;DHT22;5854;48.072;16.286;2024-01-16T04:32:11;0.80;62.60
11597;DHT22;5854;48.072;16.286;2024-01-16T04:34:38;0.80;62.50
11597;DHT22;5854;48.072;16.286;2024-01-16T04:37:06;0.90;63.40
11597;DHT22;5854;48.072;16.286;2024-01-16T04:39:33;0.80;59.80
11597;DHT22;5854;48.072;16.286;2024-01-16T04:42:01;0.80;60.10
11597;DHT22;5854;48.072;16.286;2024-01-16T04:44:29;0.80;57.80
11597;DHT22;5854;48.072;16.286;2024-01-16T04:46:56;0.80;59.80
11597;DHT22;5854;48.072;16.286;2024-01-16T04:49:23;0.80;60.60
11597;DHT22;5854;48.072;16.286;2024-01-16T04:51:50;0.70;53.00
11597;DHT22;5854;48.072;16.286;2024-01-16T04:54:17;0.70;60.20
11597;DHT22;5854;48.072;16.286;2024-01-16T04:56:44;0.80;58.40
11597;DHT22;5854;48.072;16.286;2024-01-16T04:59:13;0.70;60.10
11597;DHT22;5854;48.072;16.286;2024-01-16T05:01:40;0.70;57.00
11597;DHT22;5854;48.072;16.286;2024-01-16T05:04:07;0.90;64.40
11597;DHT22;5854;48.072;16.286;2024-01-16T05:06:35;0.80;62.60
11597;DHT22;5854;48.072;16.286;2024-01-16T05:09:03;0.80;61.10
11597;DHT22;5854;48.072;16.286;2024-01-16T05:11:30;0.80;61.00
11597;DHT22;5854;48.072;16.286;2024-01-16T05:13:57;0.70;52.40
11597;DHT22;5854;48.072;16.286;2024-01-16T05:16:26;0.70;57.90
11597;DHT22;5854;48.072;16.286;2024-01-16T05:18:53;0.70;63.30
11597;DHT22;5854;48.072;16.286;2024-01-16T05:21:20;0.70;55.30
11597;DHT22;5854;48.072;16.286;2024-01-16T05:23:48;0.70;59.70
11597;DHT22;5854;48.072;16.286;2024-01-16T05:26:15;0.70;56.70
11597;DHT22;5854;48.072;16.286;2024-01-16T05:28:42;0.70;57.40
11597;DHT22;5854;48.072;16.286;2024-01-16T05:31:09;0.70;53.80
11597;DHT22;5854;48.072;16.286;2024-01-16T05:33:38;0.70;62.70
11597;DHT22;5854;48.072;16.286;2024-01-16T05:36:06;0.70;52.90
11597;DHT22;5854;48.072;16.286;2024-01-16T05:38:33;0.70;56.60
11597;DHT22;5854;48.072;16.286;2024-01-16T05:41:00;0.70;57.60
11597;DHT22;5854;48.072;16.286;2024-01-16T05:43:29;0.70;52.70
11597;DHT22;5854;48.072;16.286;2024-01-16T05:45:56;0.70;59.50
11597;DHT22;5854;48.072;16.286;2024-01-16T05:48:23;0.70;55.00
11597;DHT22;5854;48.072;16.286;2024-01-16T05:50:52;0.80;55.90
11597;DHT22;5854;48.072;16.286;2024-01-16T05:53:19;0.80;59.80
11597;DHT22;5854;48.072;16.286;2024-01-16T05:55:46;0.80;52.90
11597;DHT22;5854;48.072;16.286;2024-01-16T05:58:14;0.80;51.20
11597;DHT22;5854;48.072;16.286;2024-01-16T06:00:41;0.70;54.80
11597;DHT22;5854;48.072;16.286;2024-01-16T06:03:08;0.80;59.70
11597;DHT22;5854;48.072;16.286;2024-01-16T06:05:35;0.80;56.80
11597;DHT22;5854;48.072;16.286;2024-01-16T06:08:04;0.80;59.30
11597;DHT22;5854;48.072;16.286;2024-01-16T06:10:32;0.80;61.00
11597;DHT22;5854;48.072;16.286;2024-01-16T06:12:59;0.70;50.70
11597;DHT22;5854;48.072;16.286;2024-01-16T06:15:26;0.70;54.20
11597;DHT22;5854;48.072;16.286;2024-01-16T06:17:54;0.80;58.60
11597;DHT22;5854;48.072;16.286;2024-01-16T06:20:21;0.70;57.30
11597;DHT22;5854;48.072;16.286;2024-01-16T06:22:50;0.70;48.90
11597;DHT22;5854;48.072;16.286;2024-01-16T06:25:19;0.70;59.10
11597;DHT22;5854;48.072;16.286;2024-01-16T06:27:46;0.70;52.30
11597;DHT22;5854;48.072;16.286;2024-01-16T06:30:13;0.70;57.00
11597;DHT22;5854;48.072;16.286;2024-01-16T06:32:41;0.70;58.30
11597;DHT22;5854;48.072;16.286;2024-01-16T06:35:09;0.70;54.70
11597;DHT22;5854;48.072;16.286;2024-01-16T06:37:50;0.70;56.20
11597;DHT22;5854;48.072;16.286;2024-01-16T06:40:19;0.70;53.40
11597;DHT22;5854;48.072;16.286;2024-01-16T06:42:46;0.70;50.90
11597;DHT22;5854;48.072;16.286;2024-01-16T06:45:14;0.80;55.90
11597;DHT22;5854;48.072;16.286;2024-01-16T06:47:41;0.80;51.70
11597;DHT22;5854;48.072;16.286;2024-01-16T06:50:09;0.70;54.00
11597;DHT22;5854;48.072;16.286;2024-01-16T06:52:36;0.70;52.10
11597;DHT22;5854;48.072;16.286;2024-01-16T06:55:04;0.70;53.10
11597;DHT22;5854;48.072;16.286;2024-01-16T06:57:32;0.70;54.30
11597;DHT22;5854;48.072;16.286;2024-01-16T07:00:00;0.70;57.10
11597;DHT22;5854;48.072;16.286;2024-01-16T07:02:27;0.70;50.30
11597;DHT22;5854;48.072;16.286;2024-01-16T07:04:54;0.70;53.50
11597;DHT22;5854;48.072;16.286;2024-01-16T07:07:21;0.70;53.30
11597;DHT22;5854;48.072;16.286;2024-01-16T07:09:50;0.70;58.00
11597;DHT22;5854;48.072;16.286;2024-01-16T07:12:17;0.70;56.00
11597;DHT22;5854;48.072;16.286;2024-01-16T07:14:45;0.70;55.00
11597;DHT22;5854;48.072;16.286;2024-01-16T07:17:13;0.70;56.90
11597;DHT22;5854;48.072;16.286;2024-01-16T07:19:40;0.70;56.40
11597;DHT22;5854;48.072;16.286;2024-01-16T07:22:07;0.80;56.90
11597;DHT22;5854;48.072;16.286;2024-01-16T07:24:35;0.70;50.40
11597;DHT22;5854;48.072;16.286;2024-01-16T07:27:02;0.80;53.80
11597;DHT22;5854;48.072;16.286;2024-01-16T07:29:29;0.80;52.30
11597;DHT22;5854;48.072;16.286;2024-01-16T07:31:58;0.80;57.20
11597;DHT22;5854;48.072;16.286;2024-01-16T07:34:25;0.80;55.50
11597;DHT22;5854;48.072;16.286;2024-01-16T07:36:52;0.80;49.20
11597;DHT22;5854;48.072;16.286;2024-01-16T07:39:20;0.80;55.70
11597;DHT22;5854;48.072;16.286;2024-01-16T07:41:48;0.80;57.00
11597;DHT22;5854;48.072;16.286;2024-01-16T07:44:15;0.80;52.30
11597;DHT22;5854;48.072;16.286;2024-01-16T07:46:43;0.80;54.40
11597;DHT22;5854;48.072;16.286;2024-01-16T07:49:11;0.80;55.60
11597;DHT22;5854;48.072;16.286;2024-01-16T07:51:38;0.80;51.60
11597;DHT22;5854;48.072;16.286;2024-01-16T07:54:07;0.90;55.70
11597;DHT22;5854;48.072;16.286;2024-01-16T07:56:36;0.80;54.40
11597;DHT22;5854;48.072;16.286;2024-01-16T07:59:04;0.90;57.60
11597;DHT22;5854;48.072;16.286;2024-01-16T08:01:32;0.90;55.60
11597;DHT22;5854;48.072;16.286;2024-01-16T08:03:59;1.00;56.40
11597;DHT22;5854;48.072;16.286;2024-01-16T08:06:28;0.90;49.80
11597;DHT22;5854;48.072;16.286;2024-01-16T08:08:55;0.90;55.20
11597;DHT22;5854;48.072;16.286;2024-01-16T08:11:23;1.00;56.60
11597;DHT22;5854;48.072;16.286;2024-01-16T08:13:50;0.90;49.40
11597;DHT22;5854;48.072;16.286;2024-01-16T08:16:17;0.90;58.70
11597;DHT22;5854;48.072;16.286;2024-01-16T08:18:45;1.00;56.80
11597;DHT22;5854;48.072;16.286;2024-01-16T08:21:12;1.00;57.20
11597;DHT22;5854;48.072;16.286;2024-01-16T08:23:40;0.90;53.00
11597;DHT22;5854;48.072;16.286;2024-01-16T08:26:07;1.00;51.20
11597;DHT22;5854;48.072;16.286;2024-01-16T08:28:35;1.00;59.30
11597;DHT22;5854;48.072;16.286;2024-01-16T08:31:02;1.00;54.10
11597;DHT22;5854;48.072;16.286;2024-01-16T08:33:30;1.00;56.10
11597;DHT22;5854;48.072;16.286;2024-01-16T08:35:59;1.10;49.60
11597;DHT22;5854;48.072;16.286;2024-01-16T08:38:26;1.10;57.90
11597;DHT22;5854;48.072;16.286;2024-01-16T08:40:55;1.10;55.00
11597;DHT22;5854;48.072;16.286;2024-01-16T08:43:22;1.10;53.50
11597;DHT22;5854;48.072;16.286;2024-01-16T08:45:49;1.10;52.70
11597;DHT22;5854;48.072;16.286;2024-01-16T08:48:17;1.10;55.80
11597;DHT22;5854;48.072;16.286;2024-01-16T08:50:44;1.20;53.20
11597;DHT22;5854;48.072;16.286;2024-01-16T08:53:12;1.30;52.10
11597;DHT22;5854;48.072;16.286;2024-01-16T08:55:39;1.30;56.40
11597;DHT22;5854;48.072;16.286;2024-01-16T08:58:08;1.30;54.50
11597;DHT22;5854;48.072;16.286;2024-01-16T09:00:35;1.30;51.80
11597;DHT22;5854;48.072;16.286;2024-01-16T09:03:04;1.50;51.40
11597;DHT22;5854;48.072;16.286;2024-01-16T09:05:31;1.50;52.20
11597;DHT22;5854;48.072;16.286;2024-01-16T09:08:00;1.40;57.10
11597;DHT22;5854;48.072;16.286;2024-01-16T09:10:28;1.60;48.40
11597;DHT22;5854;48.072;16.286;2024-01-16T09:12:55;1.60;52.80
11597;DHT22;5854;48.072;16.286;2024-01-16T09:15:24;1.60;53.60
11597;DHT22;5854;48.072;16.286;2024-01-16T09:17:51;1.70;51.70
11597;DHT22;5854;48.072;16.286;2024-01-16T09:20:18;1.70;48.90
11597;DHT22;5854;48.072;16.286;2024-01-16T09:22:46;1.60;51.80
11597;DHT22;5854;48.072;16.286;2024-01-16T09:25:13;1.60;50.00
11597;DHT22;5854;48.072;16.286;2024-01-16T09:27:41;1.70;53.50
11597;DHT22;5854;48.072;16.286;2024-01-16T09:30:09;1.60;56.00
11597;DHT22;5854;48.072;16.286;2024-01-16T09:32:39;1.60;44.60
11597;DHT22;5854;48.072;16.286;2024-01-16T09:35:08;1.80;53.80
11597;DHT22;5854;48.072;16.286;2024-01-16T09:37:36;1.80;51.50
11597;DHT22;5854;48.072;16.286;2024-01-16T09:40:06;1.80;47.30
11597;DHT22;5854;48.072;16.286;2024-01-16T09:42:34;1.80;53.50
11597;DHT22;5854;48.072;16.286;2024-01-16T09:45:03;1.70;51.90
11597;DHT22;5854;48.072;16.286;2024-01-16T09:47:31;1.80;51.60
11597;DHT22;5854;48.072;16.286;2024-01-16T09:50:00;1.70;51.00
11597;DHT22;5854;48.072;16.286;2024-01-16T09:52:29;1.80;54.50
11597;DHT22;5854;48.072;16.286;2024-01-16T09:54:56;1.80;50.50
11597;DHT22;5854;48.072;16.286;2024-01-16T09:57:25;1.80;46.20
11597;DHT22;5854;48.072;16.286;2024-01-16T09:59:53;1.80;53.50
11597;DHT22;5854;48.072;16.286;2024-01-16T10:02:20;1.90;53.40
11597;DHT22;5854;48.072;16.286;2024-01-16T10:04:48;1.90;48.10
11597;DHT22;5854;48.072;16.286;2024-01-16T10:07:18;1.90;44.80
11597;DHT22;5854;48.072;16.286;2024-01-16T10:09:51;2.10;45.00
11597;DHT22;5854;48.072;16.286;2024-01-16T10:12:18;2.10;51.90
11597;DHT22;5854;48.072;16.286;2024-01-16T10:14:46;2.20;49.60
11597;DHT22;5854;48.072;16.286;2024-01-16T10:17:17;2.30;46.80
11597;DHT22;5854;48.072;16.286;2024-01-16T10:19:49;2.20;42.60
11597;DHT22;5854;48.072;16.286;2024-01-16T10:22:24;2.20;47.90
11597;DHT22;5854;48.072;16.286;2024-01-16T10:25:04;2.10;47.60
11597;DHT22;5854;48.072;16.286;2024-01-16T10:27:32;2.00;50.70
11597;DHT22;5854;48.072;16.286;2024-01-16T10:30:00;1.90;53.00
11597;DHT22;5854;48.072;16.286;2024-01-16T10:32:28;1.90;47.80
11597;DHT22;5854;48.072;16.286;2024-01-16T10:35:04;1.90;51.60
11597;DHT22;5854;48.072;16.286;2024-01-16T10:37:42;1.90;48.20
11597;DHT22;5854;48.072;16.286;2024-01-16T10:40:11;2.00;49.50
11597;DHT22;5854;48.072;16.286;2024-01-16T10:42:41;2.10;46.20
11597;DHT22;5854;48.072;16.286;2024-01-16T10:45:11;2.00;43.30
11597;DHT22;5854;48.072;16.286;2024-01-16T10:47:44;2.10;51.30
11597;DHT22;5854;48.072;16.286;2024-01-16T10:50:12;2.00;47.40
11597;DHT22;5854;48.072;16.286;2024-01-16T10:52:46;2.20;50.10
11597;DHT22;5854;48.072;16.286;2024-01-16T10:55:19;2.10;44.70
11597;DHT22;5854;48.072;16.286;2024-01-16T10:57:49;2.20;41.80
11597;DHT22;5854;48.072;16.286;2024-01-16T11:00:19;2.20;50.70
11597;DHT22;5854;48.072;16.286;2024-01-16T11:02:51;2.30;45.10
11597;DHT22;5854;48.072;16.286;2024-01-16T11:05:22;2.70;49.80
11597;DHT22;5854;48.072;16.286;2024-01-16T11:07:54;2.70;41.10
11597;DHT22;5854;48.072;16.286;2024-01-16T11:10:22;2.80;44.70
11597;DHT22;5854;48.072;16.286;2024-01-16T11:12:51;2.60;48.10
11597;DHT22;5854;48.072;16.286;2024-01-16T11:15:19;2.50;44.30
11597;DHT22;5854;48.072;16.286;2024-01-16T11:17:47;2.50;45.00
11597;DHT22;5854;48.072;16.286;2024-01-16T11:20:16;2.40;47.90
11597;DHT22;5854;48.072;16.286;2024-01-16T11:22:45;2.60;39.90
11597;DHT22;5854;48.072;16.286;2024-01-16T11:25:15;2.70;47.30
11597;DHT22;5854;48.072;16.286;2024-01-16T11:27:46;2.50;46.80
11597;DHT22;5854;48.072;16.286;2024-01-16T11:30:29;2.50;45.70
11597;DHT22;5854;48.072;16.286;2024-01-16T11:32:58;2.60;49.30
11597;DHT22;5854;48.072;16.286;2024-01-16T11:35:32;2.50;51.80
11597;DHT22;5854;48.072;16.286;2024-01-16T11:38:04;2.20;45.00
11597;DHT22;5854;48.072;16.286;2024-01-16T11:40:34;2.20;51.60
11597;DHT22;5854;48.072;16.286;2024-01-16T11:43:35;2.20;52.10
11597;DHT22;5854;48.072;16.286;2024-01-16T11:46:04;2.10;52.30
11597;DHT22;5854;48.072;16.286;2024-01-16T11:48:33;2.20;51.00
11597;DHT22;5854;48.072;16.286;2024-01-16T11:51:00;2.20;43.50
11597;DHT22;5854;48.072;16.286;2024-01-16T11:53:51;2.10;41.50
11597;DHT22;5854;48.072;16.286;2024-01-16T11:56:46;2.30;44.20
11597;DHT22;5854;48.072;16.286;2024-01-16T12:02:34;2.30;45.10
11597;DHT22;5854;48.072;16.286;2024-01-16T12:05:10;2.50;39.30
11597;DHT22;5854;48.072;16.286;2024-01-16T12:07:45;2.50;41.70
11597;DHT22;5854;48.072;16.286;2024-01-16T12:10:15;2.60;46.90
11597;DHT22;5854;48.072;16.286;2024-01-16T12:12:45;2.50;48.10
11597;DHT22;5854;48.072;16.286;2024-01-16T12:15:16;2.40;55.00
11597;DHT22;5854;48.072;16.286;2024-01-16T12:17:54;2.50;51.10
11597;DHT22;5854;48.072;16.286;2024-01-16T12:20:23;2.60;38.50
11597;DHT22;5854;48.072;16.286;2024-01-16T12:22:54;3.00;46.60
11597;DHT22;5854;48.072;16.286;2024-01-16T12:25:22;3.00;44.20
11597;DHT22;5854;48.072;16.286;2024-01-16T12:27:58;3.10;41.40
11597;DHT22;5854;48.072;16.286;2024-01-16T12:30:27;2.80;50.70
11597;DHT22;5854;48.072;16.286;2024-01-16T12:33:05;2.60;50.50
11597;DHT22;5854;48.072;16.286;2024-01-16T12:35:34;2.50;49.90
11597;DHT22;5854;48.072;16.286;2024-01-16T12:38:03;2.60;51.10
11597;DHT22;5854;48.072;16.286;2024-01-16T12:40:31;2.50;50.60
11597;DHT22;5854;48.072;16.286;2024-01-16T12:43:01;2.50;44.70
11597;DHT22;5854;48.072;16.286;2024-01-16T12:45:28;2.60;39.10
11597;DHT22;5854;48.072;16.286;2024-01-16T12:47:57;2.50;53.10
11597;DHT22;5854;48.072;16.286;2024-01-16T12:50:25;2.70;43.40
11597;DHT22;5854;48.072;16.286;2024-01-16T12:53:04;2.80;45.70
11597;DHT22;5854;48.072;16.286;2024-01-16T12:55:34;2.80;40.20
11597;DHT22;5854;48.072;16.286;2024-01-16T12:58:17;2.80;37.40
11597;DHT22;5854;48.072;16.286;2024-01-16T13:00:44;2.80;52.40
11597;DHT22;5854;48.072;16.286;2024-01-16T13:03:15;2.60;49.50
11597;DHT22;5854;48.072;16.286;2024-01-16T13:05:44;2.50;53.30
11597;DHT22;5854;48.072;16.286;2024-01-16T13:08:17;2.40;55.10
11597;DHT22;5854;48.072;16.286;2024-01-16T13:10:46;2.50;37.50
11597;DHT22;5854;48.072;16.286;2024-01-16T13:13:16;2.80;59.50
11597;DHT22;5854;48.072;16.286;2024-01-16T13:15:45;3.40;38.40
11597;DHT22;5854;48.072;16.286;2024-01-16T13:18:19;3.50;45.70
11597;DHT22;5854;48.072;16.286;2024-01-16T13:20:48;3.20;43.60
11597;DHT22;5854;48.072;16.286;2024-01-16T13:23:16;3.10;38.20
11597;DHT22;5854;48.072;16.286;2024-01-16T13:25:44;3.10;35.90
11597;DHT22;5854;48.072;16.286;2024-01-16T13:28:12;3.10;36.50
11597;DHT22;5854;48.072;16.286;2024-01-16T13:30:41;3.10;49.30
11597;DHT22;5854;48.072;16.286;2024-01-16T13:33:09;3.00;41.90
11597;DHT22;5854;48.072;16.286;2024-01-16T13:35:39;3.30;46.80
11597;DHT22;5854;48.072;16.286;2024-01-16T13:38:08;3.20;35.80
11597;DHT22;5854;48.072;16.286;2024-01-16T13:40:37;3.20;35.40
11597;DHT22;5854;48.072;16.286;2024-01-16T13:43:04;3.30;39.30
11597;DHT22;5854;48.072;16.286;2024-01-16T13:45:32;3.20;39.70
11597;DHT22;5854;48.072;16.286;2024-01-16T13:48:03;3.20;38.90
11597;DHT22;5854;48.072;16.286;2024-01-16T13:50:31;3.20;36.10
11597;DHT22;5854;48.072;16.286;2024-01-16T13:52:59;3.30;45.70
11597;DHT22;5854;48.072;16.286;2024-01-16T13:55:26;3.00;41.80
11597;DHT22;5854;48.072;16.286;2024-01-16T13:57:53;3.00;40.20
11597;DHT22;5854;48.072;16.286;2024-01-16T14:00:20;3.00;37.10
11597;DHT22;5854;48.072;16.286;2024-01-16T14:02:48;3.10;37.70
11597;DHT22;5854;48.072;16.286;2024-01-16T14:05:18;3.20;37.50
11597;DHT22;5854;48.072;16.286;2024-01-16T14:07:47;3.10;39.90
11597;DHT22;5854;48.072;16.286;2024-01-16T14:10:16;3.10;40.30
11597;DHT22;5854;48.072;16.286;2024-01-16T14:12:45;3.00;38.70
11597;DHT22;5854;48.072;16.286;2024-01-16T14:15:13;2.90;41.30
11597;DHT22;5854;48.072;16.286;2024-01-16T14:17:46;2.90;41.30
11597;DHT22;5854;48.072;16.286;2024-01-16T14:20:15;2.90;42.20
11597;DHT22;5854;48.072;16.286;2024-01-16T14:22:47;3.00;40.20
11597;DHT22;5854;48.072;16.286;2024-01-16T14:25:14;2.90;39.00
11597;DHT22;5854;48.072;16.286;2024-01-16T14:27:45;3.00;40.70
11597;DHT22;5854;48.072;16.286;2024-01-16T14:30:15;3.00;39.30
11597;DHT22;5854;48.072;16.286;2024-01-16T14:32:44;3.20;45.50
11597;DHT22;5854;48.072;16.286;2024-01-16T14:35:13;3.20;41.50
11597;DHT22;5854;48.072;16.286;2024-01-16T14:37:44;3.10;47.30
11597;DHT22;5854;48.072;16.286;2024-01-16T14:40:11;3.00;41.10
11597;DHT22;5854;48.072;16.286;2024-01-16T14:42:41;3.00;36.80
11597;DHT22;5854;48.072;16.286;2024-01-16T14:45:10;2.90;37.90
11597;DHT22;5854;48.072;16.286;2024-01-16T14:47:38;2.90;36.70
11597;DHT22;5854;48.072;16.286;2024-01-16T14:50:07;2.90;41.60
11597;DHT22;5854;48.072;16.286;2024-01-16T14:52:35;3.00;43.00
11597;DHT22;5854;48.072;16.286;2024-01-16T14:55:04;2.90;38.30
11597;DHT22;5854;48.072;16.286;2024-01-16T14:57:33;2.90;45.00
11597;DHT22;5854;48.072;16.286;2024-01-16T15:00:08;2.90;40.40
11597;DHT22;5854;48.072;16.286;2024-01-16T15:02:48;2.80;40.90
11597;DHT22;5854;48.072;16.286;2024-01-16T15:05:16;2.90;46.80
11597;DHT22;5854;48.072;16.286;2024-01-16T15:07:45;2.90;49.10
11597;DHT22;5854;48.072;16.286;2024-01-16T15:10:14;2.90;52.00
11597;DHT22;5854;48.072;16.286;2024-01-16T15:12:42;2.90;53.00
11597;DHT22;5854;48.072;16.286;2024-01-16T15:15:11;2.90;54.00
11597;DHT22;5854;48.072;16.286;2024-01-16T15:17:39;2.90;54.10
11597;DHT22;5854;48.072;16.286;2024-01-16T15:20:07;2.90;53.40
11597;DHT22;5854;48.072;16.286;2024-01-16T15:22:37;2.90;51.80
11597;DHT22;5854;48.072;16.286;2024-01-16T15:25:06;2.80;50.60
11597;DHT22;5854;48.072;16.286;2024-01-16T15:27:35;2.80;51.60
11597;DHT22;5854;48.072;16.286;2024-01-16T15:30:02;2.70;48.60
11597;DHT22;5854;48.072;16.286;2024-01-16T15:32:30;2.60;52.90
11597;DHT22;5854;48.072;16.286;2024-01-16T15:34:58;2.60;52.70
11597;DHT22;5854;48.072;16.286;2024-01-16T15:37:25;2.70;51.10
11597;DHT22;5854;48.072;16.286;2024-01-16T15:39:52;2.60;51.20
11597;DHT22;5854;48.072;16.286;2024-01-16T15:42:20;2.60;53.20
11597;DHT22;5854;48.072;16.286;2024-01-16T15:44:49;2.60;54.30
11597;DHT22;5854;48.072;16.286;2024-01-16T15:47:16;2.60;54.70
11597;DHT22;5854;48.072;16.286;2024-01-16T15:49:43;2.60;54.00
11597;DHT22;5854;48.072;16.286;2024-01-16T15:52:12;2.60;52.60
11597;DHT22;5854;48.072;16.286;2024-01-16T15:54:40;2.50;52.30
11597;DHT22;5854;48.072;16.286;2024-01-16T15:57:07;2.50;51.40